sensor_id;sensor_type;location;lat;lon;timestamp;P1;durP1;ratioP1;P2;durP2;ratioP2
59824;SDS011;45703;50.898;6.054;2023-04-29T00:00:35;16.00;;;8.50;;
59824;SDS011;45703;50.898;6.054;2023-04-29T00:03:01;16.77;;;9.20;;
59824;SDS011;45703;50.898;6.054;2023-04-29T00:05:26;14.15;;;8.05;;
59824;SDS011;45703;50.898;6.054;2023-04-29T00:07:52;17.52;;;8.88;;
59824;SDS011;45703;50.898;6.054;2023-04-29T00:10:17;15.05;;;9.10;;
59824;SDS011;45703;50.898;6.054;2023-04-29T00:12:43;15.88;;;8.60;;
59824;SDS011;45703;50.898;6.054;2023-04-29T00:15:08;15.25;;;8.40;;
59824;SDS011;45703;50.898;6.054;2023-04-29T00:17:34;15.48;;;8.60;;
59824;SDS011;45703;50.898;6.054;2023-04-29T00:20:00;16.17;;;8.23;;
59824;SDS011;45703;50.898;6.054;2023-04-29T00:22:26;16.52;;;8.93;;
59824;SDS011;45703;50.898;6.054;2023-04-29T00:24:51;15.63;;;8.40;;
59824;SDS011;45703;50.898;6.054;2023-04-29T00:27:17;18.83;;;10.02;;
59824;SDS011;45703;50.898;6.054;2023-04-29T00:29:42;20.13;;;11.38;;
59824;SDS011;45703;50.898;6.054;2023-04-29T00:32:08;19.90;;;10.38;;
59824;SDS011;45703;50.898;6.054;2023-04-29T00:34:34;21.13;;;10.48;;
59824;SDS011;45703;50.898;6.054;2023-04-29T00:36:59;17.25;;;9.75;;
59824;SDS011;45703;50.898;6.054;2023-04-29T00:39:25;22.08;;;10.85;;
59824;SDS011;45703;50.898;6.054;2023-04-29T00:41:51;21.38;;;10.98;;
59824;SDS011;45703;50.898;6.054;2023-04-29T00:44:17;19.33;;;10.30;;
59824;SDS011;45703;50.898;6.054;2023-04-29T00:46:42;22.80;;;11.80;;
59824;SDS011;45703;50.898;6.054;2023-04-29T00:49:08;22.52;;;11.85;;
59824;SDS011;45703;50.898;6.054;2023-04-29T00:51:35;22.95;;;13.05;;
59824;SDS011;45703;50.898;6.054;2023-04-29T00:54:01;25.83;;;13.15;;
59824;SDS011;45703;50.898;6.054;2023-04-29T00:56:28;24.40;;;12.95;;
59824;SDS011;45703;50.898;6.054;2023-04-29T00:58:56;24.70;;;12.82;;
59824;SDS011;45703;50.898;6.054;2023-04-29T01:01:22;26.88;;;13.45;;
59824;SDS011;45703;50.898;6.054;2023-04-29T01:03:48;23.92;;;13.70;;
59824;SDS011;45703;50.898;6.054;2023-04-29T01:09:26;24.40;;;13.55;;
59824;SDS011;45703;50.898;6.054;2023-04-29T01:15:08;26.42;;;14.82;;
59824;SDS011;45703;50.898;6.054;2023-04-29T01:17:42;24.05;;;13.57;;
59824;SDS011;45703;50.898;6.054;2023-04-29T01:20:12;25.98;;;13.55;;
59824;SDS011;45703;50.898;6.054;2023-04-29T01:22:39;25.88;;;13.60;;
59824;SDS011;45703;50.898;6.054;2023-04-29T01:25:05;27.98;;;14.80;;
59824;SDS011;45703;50.898;6.054;2023-04-29T01:30:46;25.27;;;13.75;;
59824;SDS011;45703;50.898;6.054;2023-04-29T01:36:12;27.92;;;15.35;;
59824;SDS011;45703;50.898;6.054;2023-04-29T01:39:02;28.50;;;15.07;;
59824;SDS011;45703;50.898;6.054;2023-04-29T01:41:44;30.58;;;14.60;;
59824;SDS011;45703;50.898;6.054;2023-04-29T01:44:22;28.33;;;14.65;;
59824;SDS011;45703;50.898;6.054;2023-04-29T01:46:51;28.67;;;15.85;;
59824;SDS011;45703;50.898;6.054;2023-04-29T01:49:23;25.30;;;14.48;;
59824;SDS011;45703;50.898;6.054;2023-04-29T01:51:49;24.60;;;14.13;;
59824;SDS011;45703;50.898;6.054;2023-04-29T01:54:14;27.13;;;15.30;;
59824;SDS011;45703;50.898;6.054;2023-04-29T01:56:40;24.65;;;14.98;;
59824;SDS011;45703;50.898;6.054;2023-04-29T01:59:05;27.35;;;15.20;;
59824;SDS011;45703;50.898;6.054;2023-04-29T02:01:32;27.02;;;15.40;;
59824;SDS011;45703;50.898;6.054;2023-04-29T02:03:57;29.17;;;15.73;;
59824;SDS011;45703;50.898;6.054;2023-04-29T02:06:23;28.60;;;15.52;;
59824;SDS011;45703;50.898;6.054;2023-04-29T02:08:49;27.17;;;14.63;;
59824;SDS011;45703;50.898;6.054;2023-04-29T02:11:14;26.38;;;15.38;;
59824;SDS011;45703;50.898;6.054;2023-04-29T02:13:40;27.63;;;14.07;;
59824;SDS011;45703;50.898;6.054;2023-04-29T02:16:09;24.38;;;14.07;;
59824;SDS011;45703;50.898;6.054;2023-04-29T02:18:35;26.38;;;15.32;;
59824;SDS011;45703;50.898;6.054;2023-04-29T02:21:01;26.80;;;14.65;;
59824;SDS011;45703;50.898;6.054;2023-04-29T02:23:27;28.70;;;15.90;;
59824;SDS011;45703;50.898;6.054;2023-04-29T02:25:53;27.95;;;15.75;;
59824;SDS011;45703;50.898;6.054;2023-04-29T02:28:19;25.63;;;15.95;;
59824;SDS011;45703;50.898;6.054;2023-04-29T02:30:44;28.45;;;15.52;;
59824;SDS011;45703;50.898;6.054;2023-04-29T02:33:10;28.45;;;16.17;;
59824;SDS011;45703;50.898;6.054;2023-04-29T02:35:35;27.63;;;15.20;;
59824;SDS011;45703;50.898;6.054;2023-04-29T02:38:01;30.90;;;16.65;;
59824;SDS011;45703;50.898;6.054;2023-04-29T02:40:26;29.83;;;17.52;;
59824;SDS011;45703;50.898;6.054;2023-04-29T02:42:53;30.83;;;18.33;;
59824;SDS011;45703;50.898;6.054;2023-04-29T02:45:18;38.25;;;18.73;;
59824;SDS011;45703;50.898;6.054;2023-04-29T02:47:44;38.13;;;19.95;;
59824;SDS011;45703;50.898;6.054;2023-04-29T02:50:09;35.65;;;18.58;;
59824;SDS011;45703;50.898;6.054;2023-04-29T02:52:34;38.03;;;19.80;;
59824;SDS011;45703;50.898;6.054;2023-04-29T02:55:00;42.25;;;22.52;;
59824;SDS011;45703;50.898;6.054;2023-04-29T02:57:26;39.40;;;21.08;;
59824;SDS011;45703;50.898;6.054;2023-04-29T02:59:53;37.78;;;20.58;;
59824;SDS011;45703;50.898;6.054;2023-04-29T03:02:19;38.40;;;20.45;;
59824;SDS011;45703;50.898;6.054;2023-04-29T03:04:44;38.97;;;19.20;;
59824;SDS011;45703;50.898;6.054;2023-04-29T03:07:09;43.30;;;20.42;;
59824;SDS011;45703;50.898;6.054;2023-04-29T03:09:35;43.70;;;21.17;;
59824;SDS011;45703;50.898;6.054;2023-04-29T03:12:00;36.35;;;19.98;;
59824;SDS011;45703;50.898;6.054;2023-04-29T03:14:26;39.22;;;21.55;;
59824;SDS011;45703;50.898;6.054;2023-04-29T03:16:52;40.80;;;21.65;;
59824;SDS011;45703;50.898;6.054;2023-04-29T03:19:20;42.88;;;23.92;;
59824;SDS011;45703;50.898;6.054;2023-04-29T03:21:45;50.40;;;24.75;;
59824;SDS011;45703;50.898;6.054;2023-04-29T03:24:11;52.20;;;25.75;;
59824;SDS011;45703;50.898;6.054;2023-04-29T03:26:36;51.30;;;25.33;;
59824;SDS011;45703;50.898;6.054;2023-04-29T03:29:02;52.72;;;25.67;;
59824;SDS011;45703;50.898;6.054;2023-04-29T03:31:27;44.33;;;24.85;;
59824;SDS011;45703;50.898;6.054;2023-04-29T03:33:53;54.63;;;26.15;;
59824;SDS011;45703;50.898;6.054;2023-04-29T03:36:18;47.70;;;25.23;;
59824;SDS011;45703;50.898;6.054;2023-04-29T03:38:44;48.75;;;25.50;;
59824;SDS011;45703;50.898;6.054;2023-04-29T03:41:09;46.25;;;24.25;;
59824;SDS011;45703;50.898;6.054;2023-04-29T03:43:35;45.15;;;23.38;;
59824;SDS011;45703;50.898;6.054;2023-04-29T03:46:00;49.85;;;26.17;;
59824;SDS011;45703;50.898;6.054;2023-04-29T03:48:25;50.85;;;25.83;;
59824;SDS011;45703;50.898;6.054;2023-04-29T03:50:51;48.10;;;25.15;;
59824;SDS011;45703;50.898;6.054;2023-04-29T03:53:17;52.85;;;25.23;;
59824;SDS011;45703;50.898;6.054;2023-04-29T03:55:42;50.92;;;26.48;;
59824;SDS011;45703;50.898;6.054;2023-04-29T03:58:08;51.38;;;26.33;;
59824;SDS011;45703;50.898;6.054;2023-04-29T04:00:33;51.95;;;27.13;;
59824;SDS011;45703;50.898;6.054;2023-04-29T04:02:58;48.95;;;26.05;;
59824;SDS011;45703;50.898;6.054;2023-04-29T04:05:24;49.72;;;25.70;;
59824;SDS011;45703;50.898;6.054;2023-04-29T04:07:50;54.35;;;27.50;;
59824;SDS011;45703;50.898;6.054;2023-04-29T04:10:19;51.70;;;27.63;;
59824;SDS011;45703;50.898;6.054;2023-04-29T04:12:44;50.70;;;27.27;;
59824;SDS011;45703;50.898;6.054;2023-04-29T04:15:11;46.05;;;24.25;;
59824;SDS011;45703;50.898;6.054;2023-04-29T04:17:37;47.95;;;24.27;;
59824;SDS011;45703;50.898;6.054;2023-04-29T04:20:02;47.92;;;24.60;;
59824;SDS011;45703;50.898;6.054;2023-04-29T04:22:28;47.28;;;23.90;;
59824;SDS011;45703;50.898;6.054;2023-04-29T04:24:54;47.20;;;23.67;;
59824;SDS011;45703;50.898;6.054;2023-04-29T04:27:19;47.00;;;23.33;;
59824;SDS011;45703;50.898;6.054;2023-04-29T04:29:45;45.25;;;22.70;;
59824;SDS011;45703;50.898;6.054;2023-04-29T04:32:10;45.03;;;22.25;;
59824;SDS011;45703;50.898;6.054;2023-04-29T04:34:36;38.42;;;19.67;;
59824;SDS011;45703;50.898;6.054;2023-04-29T04:37:03;36.35;;;18.38;;
59824;SDS011;45703;50.898;6.054;2023-04-29T04:39:29;34.28;;;17.67;;
59824;SDS011;45703;50.898;6.054;2023-04-29T04:41:54;34.13;;;18.30;;
59824;SDS011;45703;50.898;6.054;2023-04-29T04:44:20;36.88;;;19.15;;
59824;SDS011;45703;50.898;6.054;2023-04-29T04:46:45;34.65;;;17.60;;
59824;SDS011;45703;50.898;6.054;2023-04-29T04:49:11;31.95;;;17.02;;
59824;SDS011;45703;50.898;6.054;2023-04-29T04:51:36;35.45;;;18.27;;
59824;SDS011;45703;50.898;6.054;2023-04-29T04:54:01;33.33;;;17.17;;
59824;SDS011;45703;50.898;6.054;2023-04-29T04:56:27;35.97;;;16.90;;
59824;SDS011;45703;50.898;6.054;2023-04-29T04:58:52;30.95;;;16.70;;
59824;SDS011;45703;50.898;6.054;2023-04-29T05:01:17;29.42;;;15.15;;
59824;SDS011;45703;50.898;6.054;2023-04-29T05:03:43;32.15;;;15.73;;
59824;SDS011;45703;50.898;6.054;2023-04-29T05:06:08;28.95;;;14.68;;
59824;SDS011;45703;50.898;6.054;2023-04-29T05:08:34;31.27;;;15.88;;
59824;SDS011;45703;50.898;6.054;2023-04-29T05:10:59;29.98;;;15.15;;
59824;SDS011;45703;50.898;6.054;2023-04-29T05:13:24;27.42;;;13.95;;
59824;SDS011;45703;50.898;6.054;2023-04-29T05:15:50;26.83;;;14.52;;
59824;SDS011;45703;50.898;6.054;2023-04-29T05:18:15;29.52;;;15.30;;
59824;SDS011;45703;50.898;6.054;2023-04-29T05:20:41;28.45;;;14.32;;
59824;SDS011;45703;50.898;6.054;2023-04-29T05:23:06;28.85;;;14.18;;
59824;SDS011;45703;50.898;6.054;2023-04-29T05:25:32;28.40;;;14.60;;
59824;SDS011;45703;50.898;6.054;2023-04-29T05:27:58;27.55;;;14.20;;
59824;SDS011;45703;50.898;6.054;2023-04-29T05:30:24;26.33;;;13.40;;
59824;SDS011;45703;50.898;6.054;2023-04-29T05:32:49;24.33;;;13.35;;
59824;SDS011;45703;50.898;6.054;2023-04-29T05:35:15;29.45;;;14.98;;
59824;SDS011;45703;50.898;6.054;2023-04-29T05:37:41;25.05;;;12.32;;
59824;SDS011;45703;50.898;6.054;2023-04-29T05:40:06;25.88;;;14.25;;
59824;SDS011;45703;50.898;6.054;2023-04-29T05:42:32;26.08;;;13.57;;
59824;SDS011;45703;50.898;6.054;2023-04-29T05:44:58;24.23;;;12.73;;
59824;SDS011;45703;50.898;6.054;2023-04-29T05:47:23;27.60;;;14.00;;
59824;SDS011;45703;50.898;6.054;2023-04-29T05:49:48;26.00;;;12.85;;
59824;SDS011;45703;50.898;6.054;2023-04-29T05:52:14;28.15;;;13.52;;
59824;SDS011;45703;50.898;6.054;2023-04-29T05:54:39;29.25;;;14.45;;
59824;SDS011;45703;50.898;6.054;2023-04-29T05:57:05;25.17;;;13.60;;
59824;SDS011;45703;50.898;6.054;2023-04-29T05:59:31;26.02;;;12.65;;
59824;SDS011;45703;50.898;6.054;2023-04-29T06:01:57;22.95;;;11.98;;
59824;SDS011;45703;50.898;6.054;2023-04-29T06:04:24;27.40;;;13.85;;
59824;SDS011;45703;50.898;6.054;2023-04-29T06:06:50;24.23;;;13.40;;
59824;SDS011;45703;50.898;6.054;2023-04-29T06:09:16;25.58;;;13.50;;
59824;SDS011;45703;50.898;6.054;2023-04-29T06:11:42;24.05;;;13.30;;
59824;SDS011;45703;50.898;6.054;2023-04-29T06:14:09;28.42;;;13.48;;
59824;SDS011;45703;50.898;6.054;2023-04-29T06:16:34;32.38;;;15.05;;
59824;SDS011;45703;50.898;6.054;2023-04-29T06:19:00;29.67;;;15.60;;
59824;SDS011;45703;50.898;6.054;2023-04-29T06:21:26;26.08;;;14.35;;
59824;SDS011;45703;50.898;6.054;2023-04-29T06:23:52;28.13;;;13.75;;
59824;SDS011;45703;50.898;6.054;2023-04-29T06:26:18;28.30;;;14.65;;
59824;SDS011;45703;50.898;6.054;2023-04-29T06:28:45;23.40;;;13.05;;
59824;SDS011;45703;50.898;6.054;2023-04-29T06:31:11;24.55;;;13.00;;
59824;SDS011;45703;50.898;6.054;2023-04-29T06:33:36;26.25;;;14.30;;
59824;SDS011;45703;50.898;6.054;2023-04-29T06:36:02;24.33;;;13.07;;
59824;SDS011;45703;50.898;6.054;2023-04-29T06:38:28;26.20;;;13.20;;
59824;SDS011;45703;50.898;6.054;2023-04-29T06:40:54;23.25;;;12.40;;
59824;SDS011;45703;50.898;6.054;2023-04-29T06:43:19;26.88;;;13.23;;
59824;SDS011;45703;50.898;6.054;2023-04-29T06:45:45;25.30;;;13.32;;
59824;SDS011;45703;50.898;6.054;2023-04-29T06:48:11;24.75;;;12.85;;
59824;SDS011;45703;50.898;6.054;2023-04-29T06:50:36;24.92;;;13.13;;
59824;SDS011;45703;50.898;6.054;2023-04-29T06:53:02;24.90;;;13.65;;
59824;SDS011;45703;50.898;6.054;2023-04-29T06:55:27;21.98;;;12.52;;
59824;SDS011;45703;50.898;6.054;2023-04-29T06:57:52;22.33;;;11.63;;
59824;SDS011;45703;50.898;6.054;2023-04-29T07:00:18;20.50;;;10.77;;
59824;SDS011;45703;50.898;6.054;2023-04-29T07:02:45;21.63;;;11.38;;
59824;SDS011;45703;50.898;6.054;2023-04-29T07:05:10;21.58;;;11.48;;
59824;SDS011;45703;50.898;6.054;2023-04-29T07:07:36;22.92;;;11.10;;
59824;SDS011;45703;50.898;6.054;2023-04-29T07:10:01;23.00;;;11.30;;
59824;SDS011;45703;50.898;6.054;2023-04-29T07:12:27;22.17;;;12.20;;
59824;SDS011;45703;50.898;6.054;2023-04-29T07:14:53;21.90;;;10.85;;
59824;SDS011;45703;50.898;6.054;2023-04-29T07:17:18;22.02;;;11.70;;
59824;SDS011;45703;50.898;6.054;2023-04-29T07:19:44;18.67;;;10.30;;
59824;SDS011;45703;50.898;6.054;2023-04-29T07:22:10;20.88;;;10.85;;
59824;SDS011;45703;50.898;6.054;2023-04-29T07:24:36;21.02;;;12.10;;
59824;SDS011;45703;50.898;6.054;2023-04-29T07:27:01;21.25;;;10.60;;
59824;SDS011;45703;50.898;6.054;2023-04-29T07:29:27;22.20;;;10.50;;
59824;SDS011;45703;50.898;6.054;2023-04-29T07:31:52;20.52;;;10.60;;
59824;SDS011;45703;50.898;6.054;2023-04-29T07:34:18;20.15;;;11.07;;
59824;SDS011;45703;50.898;6.054;2023-04-29T07:36:43;20.15;;;10.85;;
59824;SDS011;45703;50.898;6.054;2023-04-29T07:39:08;20.13;;;10.45;;
59824;SDS011;45703;50.898;6.054;2023-04-29T07:41:36;24.02;;;11.20;;
59824;SDS011;45703;50.898;6.054;2023-04-29T07:44:01;22.02;;;11.55;;
59824;SDS011;45703;50.898;6.054;2023-04-29T07:46:27;19.33;;;10.05;;
59824;SDS011;45703;50.898;6.054;2023-04-29T07:48:52;18.95;;;10.60;;
59824;SDS011;45703;50.898;6.054;2023-04-29T07:51:18;20.70;;;11.38;;
59824;SDS011;45703;50.898;6.054;2023-04-29T07:53:43;20.27;;;9.80;;
59824;SDS011;45703;50.898;6.054;2023-04-29T07:56:08;20.15;;;10.38;;
59824;SDS011;45703;50.898;6.054;2023-04-29T07:58:34;18.50;;;10.10;;
59824;SDS011;45703;50.898;6.054;2023-04-29T08:01:06;19.58;;;10.48;;
59824;SDS011;45703;50.898;6.054;2023-04-29T08:03:33;20.02;;;10.18;;
59824;SDS011;45703;50.898;6.054;2023-04-29T08:06:02;19.70;;;11.07;;
59824;SDS011;45703;50.898;6.054;2023-04-29T08:08:29;19.48;;;10.07;;
59824;SDS011;45703;50.898;6.054;2023-04-29T08:10:55;23.02;;;11.52;;
59824;SDS011;45703;50.898;6.054;2023-04-29T08:13:20;18.55;;;10.25;;
59824;SDS011;45703;50.898;6.054;2023-04-29T08:15:46;19.23;;;11.18;;
59824;SDS011;45703;50.898;6.054;2023-04-29T08:18:11;22.38;;;11.15;;
59824;SDS011;45703;50.898;6.054;2023-04-29T08:20:37;23.80;;;11.13;;
59824;SDS011;45703;50.898;6.054;2023-04-29T08:23:02;20.13;;;10.45;;
59824;SDS011;45703;50.898;6.054;2023-04-29T08:25:28;22.58;;;11.18;;
59824;SDS011;45703;50.898;6.054;2023-04-29T08:27:54;17.35;;;9.50;;
59824;SDS011;45703;50.898;6.054;2023-04-29T08:30:20;17.88;;;9.75;;
59824;SDS011;45703;50.898;6.054;2023-04-29T08:32:45;21.30;;;10.55;;
59824;SDS011;45703;50.898;6.054;2023-04-29T08:35:11;21.88;;;11.15;;
59824;SDS011;45703;50.898;6.054;2023-04-29T08:37:37;19.63;;;11.00;;
59824;SDS011;45703;50.898;6.054;2023-04-29T08:40:03;18.70;;;10.23;;
59824;SDS011;45703;50.898;6.054;2023-04-29T08:42:33;17.75;;;10.05;;
59824;SDS011;45703;50.898;6.054;2023-04-29T08:47:29;20.30;;;10.10;;
59824;SDS011;45703;50.898;6.054;2023-04-29T08:50:02;19.15;;;10.38;;
59824;SDS011;45703;50.898;6.054;2023-04-29T08:54:56;19.00;;;10.57;;
59824;SDS011;45703;50.898;6.054;2023-04-29T08:57:23;19.23;;;10.45;;
59824;SDS011;45703;50.898;6.054;2023-04-29T08:59:50;21.10;;;11.63;;
59824;SDS011;45703;50.898;6.054;2023-04-29T09:02:16;19.58;;;10.95;;
59824;SDS011;45703;50.898;6.054;2023-04-29T09:04:46;21.70;;;11.73;;
59824;SDS011;45703;50.898;6.054;2023-04-29T09:07:17;19.15;;;10.63;;
59824;SDS011;45703;50.898;6.054;2023-04-29T09:09:42;21.45;;;11.27;;
59824;SDS011;45703;50.898;6.054;2023-04-29T09:12:08;21.10;;;11.18;;
59824;SDS011;45703;50.898;6.054;2023-04-29T09:14:34;21.70;;;11.68;;
59824;SDS011;45703;50.898;6.054;2023-04-29T09:17:00;20.55;;;11.35;;
59824;SDS011;45703;50.898;6.054;2023-04-29T09:19:30;20.70;;;10.73;;
59824;SDS011;45703;50.898;6.054;2023-04-29T09:21:57;20.33;;;11.65;;
59824;SDS011;45703;50.898;6.054;2023-04-29T09:24:26;19.65;;;11.10;;
59824;SDS011;45703;50.898;6.054;2023-04-29T09:26:52;20.63;;;10.50;;
59824;SDS011;45703;50.898;6.054;2023-04-29T09:29:19;20.33;;;11.38;;
59824;SDS011;45703;50.898;6.054;2023-04-29T09:31:45;18.95;;;10.55;;
59824;SDS011;45703;50.898;6.054;2023-04-29T09:34:11;18.60;;;9.60;;
59824;SDS011;45703;50.898;6.054;2023-04-29T09:36:45;18.70;;;9.57;;
59824;SDS011;45703;50.898;6.054;2023-04-29T09:39:12;19.23;;;9.05;;
59824;SDS011;45703;50.898;6.054;2023-04-29T09:41:41;15.98;;;8.73;;
59824;SDS011;45703;50.898;6.054;2023-04-29T09:44:24;16.85;;;8.90;;
59824;SDS011;45703;50.898;6.054;2023-04-29T09:46:58;16.48;;;8.25;;
59824;SDS011;45703;50.898;6.054;2023-04-29T09:49:32;16.85;;;8.63;;
59824;SDS011;45703;50.898;6.054;2023-04-29T09:52:02;13.93;;;7.90;;
59824;SDS011;45703;50.898;6.054;2023-04-29T09:54:29;14.82;;;8.10;;
59824;SDS011;45703;50.898;6.054;2023-04-29T09:56:56;14.38;;;8.15;;
59824;SDS011;45703;50.898;6.054;2023-04-29T09:59:23;15.00;;;7.72;;
59824;SDS011;45703;50.898;6.054;2023-04-29T10:01:55;15.82;;;8.32;;
59824;SDS011;45703;50.898;6.054;2023-04-29T10:04:22;14.38;;;7.38;;
59824;SDS011;45703;50.898;6.054;2023-04-29T10:06:53;14.15;;;7.63;;
59824;SDS011;45703;50.898;6.054;2023-04-29T10:09:20;15.70;;;8.55;;
59824;SDS011;45703;50.898;6.054;2023-04-29T10:11:47;15.57;;;8.35;;
59824;SDS011;45703;50.898;6.054;2023-04-29T10:14:15;15.25;;;7.78;;
59824;SDS011;45703;50.898;6.054;2023-04-29T10:19:34;17.80;;;9.35;;
59824;SDS011;45703;50.898;6.054;2023-04-29T10:22:06;15.10;;;8.23;;
59824;SDS011;45703;50.898;6.054;2023-04-29T10:24:37;15.95;;;9.50;;
59824;SDS011;45703;50.898;6.054;2023-04-29T10:27:05;18.13;;;9.55;;
59824;SDS011;45703;50.898;6.054;2023-04-29T10:29:41;18.77;;;8.95;;
59824;SDS011;45703;50.898;6.054;2023-04-29T10:32:07;18.90;;;10.38;;
59824;SDS011;45703;50.898;6.054;2023-04-29T10:34:37;18.00;;;10.38;;
59824;SDS011;45703;50.898;6.054;2023-04-29T10:37:08;18.20;;;10.10;;
59824;SDS011;45703;50.898;6.054;2023-04-29T10:39:38;17.92;;;10.40;;
59824;SDS011;45703;50.898;6.054;2023-04-29T10:50:33;15.93;;;9.30;;
59824;SDS011;45703;50.898;6.054;2023-04-29T10:53:06;16.73;;;9.52;;
59824;SDS011;45703;50.898;6.054;2023-04-29T10:55:34;19.00;;;10.63;;
59824;SDS011;45703;50.898;6.054;2023-04-29T10:58:02;17.60;;;10.07;;
59824;SDS011;45703;50.898;6.054;2023-04-29T11:00:28;17.80;;;10.10;;
59824;SDS011;45703;50.898;6.054;2023-04-29T11:02:56;18.98;;;10.25;;
59824;SDS011;45703;50.898;6.054;2023-04-29T11:05:33;18.40;;;11.00;;
59824;SDS011;45703;50.898;6.054;2023-04-29T11:08:12;17.40;;;10.50;;
59824;SDS011;45703;50.898;6.054;2023-04-29T11:10:47;18.83;;;11.25;;
59824;SDS011;45703;50.898;6.054;2023-04-29T11:13:28;20.65;;;11.43;;
59824;SDS011;45703;50.898;6.054;2023-04-29T11:16:08;21.65;;;12.23;;
59824;SDS011;45703;50.898;6.054;2023-04-29T11:18:35;19.23;;;11.10;;
59824;SDS011;45703;50.898;6.054;2023-04-29T11:21:21;19.73;;;11.15;;
59824;SDS011;45703;50.898;6.054;2023-04-29T11:23:47;20.75;;;12.07;;
59824;SDS011;45703;50.898;6.054;2023-04-29T11:26:17;18.85;;;11.82;;
59824;SDS011;45703;50.898;6.054;2023-04-29T11:28:43;22.38;;;12.55;;
59824;SDS011;45703;50.898;6.054;2023-04-29T11:31:09;24.88;;;12.90;;
59824;SDS011;45703;50.898;6.054;2023-04-29T11:33:35;21.55;;;12.63;;
59824;SDS011;45703;50.898;6.054;2023-04-29T11:36:00;21.88;;;13.18;;
59824;SDS011;45703;50.898;6.054;2023-04-29T11:38:26;20.80;;;12.85;;
59824;SDS011;45703;50.898;6.054;2023-04-29T11:40:58;24.63;;;13.25;;
59824;SDS011;45703;50.898;6.054;2023-04-29T11:43:25;24.77;;;13.70;;
59824;SDS011;45703;50.898;6.054;2023-04-29T11:45:51;24.45;;;13.63;;
59824;SDS011;45703;50.898;6.054;2023-04-29T11:48:17;23.35;;;13.82;;
59824;SDS011;45703;50.898;6.054;2023-04-29T11:50:51;22.17;;;13.40;;
59824;SDS011;45703;50.898;6.054;2023-04-29T11:53:19;21.60;;;12.65;;
59824;SDS011;45703;50.898;6.054;2023-04-29T11:55:46;21.95;;;13.73;;
59824;SDS011;45703;50.898;6.054;2023-04-29T11:58:13;22.63;;;13.50;;
59824;SDS011;45703;50.898;6.054;2023-04-29T12:00:39;24.80;;;15.50;;
59824;SDS011;45703;50.898;6.054;2023-04-29T12:06:01;23.83;;;14.70;;
59824;SDS011;45703;50.898;6.054;2023-04-29T12:08:26;24.45;;;14.55;;
59824;SDS011;45703;50.898;6.054;2023-04-29T12:10:53;22.50;;;14.68;;
59824;SDS011;45703;50.898;6.054;2023-04-29T12:13:19;23.20;;;14.70;;
59824;SDS011;45703;50.898;6.054;2023-04-29T12:15:47;23.88;;;14.80;;
59824;SDS011;45703;50.898;6.054;2023-04-29T12:18:15;23.20;;;14.52;;
59824;SDS011;45703;50.898;6.054;2023-04-29T12:20:42;21.88;;;13.88;;
59824;SDS011;45703;50.898;6.054;2023-04-29T12:23:18;24.65;;;16.02;;
59824;SDS011;45703;50.898;6.054;2023-04-29T12:25:52;22.17;;;14.27;;
59824;SDS011;45703;50.898;6.054;2023-04-29T12:28:19;22.23;;;15.10;;
59824;SDS011;45703;50.898;6.054;2023-04-29T12:30:46;24.98;;;15.55;;
59824;SDS011;45703;50.898;6.054;2023-04-29T12:33:30;23.67;;;15.05;;
59824;SDS011;45703;50.898;6.054;2023-04-29T12:35:56;22.38;;;14.70;;
59824;SDS011;45703;50.898;6.054;2023-04-29T12:38:23;20.85;;;14.40;;
59824;SDS011;45703;50.898;6.054;2023-04-29T12:40:54;24.98;;;14.93;;
59824;SDS011;45703;50.898;6.054;2023-04-29T12:43:30;25.25;;;15.25;;
59824;SDS011;45703;50.898;6.054;2023-04-29T12:46:01;22.67;;;15.38;;
59824;SDS011;45703;50.898;6.054;2023-04-29T12:48:30;23.55;;;14.55;;
59824;SDS011;45703;50.898;6.054;2023-04-29T12:51:01;24.40;;;15.25;;
59824;SDS011;45703;50.898;6.054;2023-04-29T12:53:28;21.38;;;14.57;;
59824;SDS011;45703;50.898;6.054;2023-04-29T12:55:54;21.75;;;14.45;;
59824;SDS011;45703;50.898;6.054;2023-04-29T12:58:19;24.02;;;14.40;;
59824;SDS011;45703;50.898;6.054;2023-04-29T13:00:45;23.48;;;14.35;;
59824;SDS011;45703;50.898;6.054;2023-04-29T13:03:10;24.35;;;15.23;;
59824;SDS011;45703;50.898;6.054;2023-04-29T13:05:36;24.60;;;15.30;;
59824;SDS011;45703;50.898;6.054;2023-04-29T13:08:01;25.15;;;16.95;;
59824;SDS011;45703;50.898;6.054;2023-04-29T13:10:29;25.10;;;14.85;;
59824;SDS011;45703;50.898;6.054;2023-04-29T13:12:55;22.15;;;14.93;;
59824;SDS011;45703;50.898;6.054;2023-04-29T13:15:20;24.80;;;15.60;;
59824;SDS011;45703;50.898;6.054;2023-04-29T13:17:46;22.70;;;15.00;;
59824;SDS011;45703;50.898;6.054;2023-04-29T13:20:11;23.75;;;16.13;;
59824;SDS011;45703;50.898;6.054;2023-04-29T13:22:37;23.33;;;15.63;;
59824;SDS011;45703;50.898;6.054;2023-04-29T13:25:03;24.15;;;15.70;;
59824;SDS011;45703;50.898;6.054;2023-04-29T13:27:29;29.05;;;16.75;;
59824;SDS011;45703;50.898;6.054;2023-04-29T13:29:54;23.90;;;15.32;;
59824;SDS011;45703;50.898;6.054;2023-04-29T13:32:20;22.88;;;15.95;;
59824;SDS011;45703;50.898;6.054;2023-04-29T13:34:47;26.05;;;16.40;;
59824;SDS011;45703;50.898;6.054;2023-04-29T13:37:14;23.48;;;15.63;;
59824;SDS011;45703;50.898;6.054;2023-04-29T13:39:39;23.13;;;15.52;;
59824;SDS011;45703;50.898;6.054;2023-04-29T13:42:04;22.85;;;15.27;;
59824;SDS011;45703;50.898;6.054;2023-04-29T13:44:30;22.77;;;14.80;;
59824;SDS011;45703;50.898;6.054;2023-04-29T13:46:56;23.80;;;15.13;;
59824;SDS011;45703;50.898;6.054;2023-04-29T13:49:21;19.75;;;14.13;;
59824;SDS011;45703;50.898;6.054;2023-04-29T13:51:47;21.60;;;14.82;;
59824;SDS011;45703;50.898;6.054;2023-04-29T13:54:12;22.75;;;17.02;;
59824;SDS011;45703;50.898;6.054;2023-04-29T13:56:37;20.98;;;14.90;;
59824;SDS011;45703;50.898;6.054;2023-04-29T13:59:03;22.15;;;15.13;;
59824;SDS011;45703;50.898;6.054;2023-04-29T14:01:28;22.17;;;14.65;;
59824;SDS011;45703;50.898;6.054;2023-04-29T14:03:54;20.40;;;15.45;;
59824;SDS011;45703;50.898;6.054;2023-04-29T14:06:19;20.23;;;15.18;;
59824;SDS011;45703;50.898;6.054;2023-04-29T14:08:45;24.20;;;16.98;;
59824;SDS011;45703;50.898;6.054;2023-04-29T14:11:11;20.17;;;14.52;;
59824;SDS011;45703;50.898;6.054;2023-04-29T14:13:36;20.58;;;14.18;;
59824;SDS011;45703;50.898;6.054;2023-04-29T14:16:02;20.92;;;14.27;;
59824;SDS011;45703;50.898;6.054;2023-04-29T14:18:29;21.35;;;15.10;;
59824;SDS011;45703;50.898;6.054;2023-04-29T14:20:55;18.45;;;13.50;;
59824;SDS011;45703;50.898;6.054;2023-04-29T14:23:21;20.05;;;12.90;;
59824;SDS011;45703;50.898;6.054;2023-04-29T14:25:46;16.77;;;12.60;;
59824;SDS011;45703;50.898;6.054;2023-04-29T14:28:12;17.88;;;12.23;;
59824;SDS011;45703;50.898;6.054;2023-04-29T14:30:37;19.27;;;12.30;;
59824;SDS011;45703;50.898;6.054;2023-04-29T14:33:03;17.67;;;12.23;;
59824;SDS011;45703;50.898;6.054;2023-04-29T14:35:28;16.35;;;11.30;;
59824;SDS011;45703;50.898;6.054;2023-04-29T14:37:55;14.73;;;10.35;;
59824;SDS011;45703;50.898;6.054;2023-04-29T14:40:20;16.00;;;10.95;;
59824;SDS011;45703;50.898;6.054;2023-04-29T14:42:46;16.05;;;10.43;;
59824;SDS011;45703;50.898;6.054;2023-04-29T14:45:11;16.95;;;10.85;;
59824;SDS011;45703;50.898;6.054;2023-04-29T14:47:37;16.50;;;10.50;;
59824;SDS011;45703;50.898;6.054;2023-04-29T14:50:02;17.08;;;11.32;;
59824;SDS011;45703;50.898;6.054;2023-04-29T14:52:28;16.17;;;11.27;;